sensor_id;sensor_type;location;lat;lon;timestamp;P1;durP1;ratioP1;P2;durP2;ratioP2
17345;SDS011;8790;53.590;10.002;2023-02-02T00:02:00;21.57;;;3.90;;
17345;SDS011;8790;53.590;10.002;2023-02-02T00:04:34;19.97;;;3.87;;
17345;SDS011;8790;53.590;10.002;2023-02-02T00:07:07;23.90;;;3.90;;
17345;SDS011;8790;53.590;10.002;2023-02-02T00:09:40;20.33;;;4.33;;
17345;SDS011;8790;53.590;10.002;2023-02-02T00:12:12;21.37;;;4.53;;
17345;SDS011;8790;53.590;10.002;2023-02-02T00:14:43;21.53;;;3.60;;
17345;SDS011;8790;53.590;10.002;2023-02-02T00:17:15;16.93;;;3.80;;
17345;SDS011;8790;53.590;10.002;2023-02-02T00:19:47;18.67;;;3.63;;
17345;SDS011;8790;53.590;10.002;2023-02-02T00:22:18;17.93;;;3.93;;
17345;SDS011;8790;53.590;10.002;2023-02-02T00:24:52;21.50;;;3.27;;
17345;SDS011;8790;53.590;10.002;2023-02-02T00:27:24;21.63;;;3.90;;
17345;SDS011;8790;53.590;10.002;2023-02-02T00:29:55;22.80;;;4.40;;
17345;SDS011;8790;53.590;10.002;2023-02-02T00:32:27;22.20;;;4.10;;
17345;SDS011;8790;53.590;10.002;2023-02-02T00:34:59;20.67;;;3.83;;
17345;SDS011;8790;53.590;10.002;2023-02-02T00:37:30;25.57;;;4.10;;
17345;SDS011;8790;53.590;10.002;2023-02-02T00:40:04;20.07;;;3.70;;
17345;SDS011;8790;53.590;10.002;2023-02-02T00:42:37;18.23;;;3.43;;
17345;SDS011;8790;53.590;10.002;2023-02-02T00:45:11;20.63;;;3.80;;
17345;SDS011;8790;53.590;10.002;2023-02-02T00:47:46;23.03;;;3.43;;
17345;SDS011;8790;53.590;10.002;2023-02-02T00:50:19;13.07;;;2.97;;
17345;SDS011;8790;53.590;10.002;2023-02-02T00:52:51;21.60;;;4.00;;
17345;SDS011;8790;53.590;10.002;2023-02-02T00:55:24;17.93;;;3.40;;
17345;SDS011;8790;53.590;10.002;2023-02-02T00:57:56;21.87;;;3.07;;
17345;SDS011;8790;53.590;10.002;2023-02-02T01:00:29;19.27;;;3.50;;
17345;SDS011;8790;53.590;10.002;2023-02-02T01:03:02;18.93;;;2.97;;
17345;SDS011;8790;53.590;10.002;2023-02-02T01:05:36;13.70;;;2.97;;
17345;SDS011;8790;53.590;10.002;2023-02-02T01:08:08;18.60;;;3.40;;
17345;SDS011;8790;53.590;10.002;2023-02-02T01:10:41;12.77;;;2.90;;
17345;SDS011;8790;53.590;10.002;2023-02-02T01:13:12;18.93;;;2.90;;
17345;SDS011;8790;53.590;10.002;2023-02-02T01:15:44;23.07;;;4.07;;
17345;SDS011;8790;53.590;10.002;2023-02-02T01:18:16;19.37;;;3.03;;
17345;SDS011;8790;53.590;10.002;2023-02-02T01:20:49;19.77;;;2.90;;
17345;SDS011;8790;53.590;10.002;2023-02-02T01:23:27;16.60;;;2.93;;
17345;SDS011;8790;53.590;10.002;2023-02-02T01:26:01;17.43;;;2.90;;
17345;SDS011;8790;53.590;10.002;2023-02-02T01:28:36;16.77;;;3.10;;
17345;SDS011;8790;53.590;10.002;2023-02-02T01:31:09;18.50;;;3.70;;
17345;SDS011;8790;53.590;10.002;2023-02-02T01:33:43;13.83;;;2.77;;
17345;SDS011;8790;53.590;10.002;2023-02-02T01:36:17;13.80;;;2.70;;
17345;SDS011;8790;53.590;10.002;2023-02-02T01:38:53;21.50;;;3.60;;
17345;SDS011;8790;53.590;10.002;2023-02-02T01:41:29;17.63;;;3.03;;
17345;SDS011;8790;53.590;10.002;2023-02-02T01:44:01;22.70;;;3.30;;
17345;SDS011;8790;53.590;10.002;2023-02-02T01:46:35;14.73;;;3.07;;
17345;SDS011;8790;53.590;10.002;2023-02-02T01:49:08;13.80;;;3.20;;
17345;SDS011;8790;53.590;10.002;2023-02-02T01:51:44;16.00;;;3.53;;
17345;SDS011;8790;53.590;10.002;2023-02-02T01:54:19;17.10;;;3.03;;
17345;SDS011;8790;53.590;10.002;2023-02-02T01:56:56;18.77;;;3.37;;
17345;SDS011;8790;53.590;10.002;2023-02-02T01:59:30;16.03;;;2.60;;
17345;SDS011;8790;53.590;10.002;2023-02-02T02:02:03;15.17;;;2.80;;
17345;SDS011;8790;53.590;10.002;2023-02-02T02:04:36;11.10;;;2.33;;
17345;SDS011;8790;53.590;10.002;2023-02-02T02:07:08;13.17;;;2.77;;
17345;SDS011;8790;53.590;10.002;2023-02-02T02:09:41;13.90;;;2.70;;
17345;SDS011;8790;53.590;10.002;2023-02-02T02:12:14;10.83;;;2.13;;
17345;SDS011;8790;53.590;10.002;2023-02-02T02:14:46;8.93;;;1.60;;
17345;SDS011;8790;53.590;10.002;2023-02-02T02:20:41;11.13;;;1.90;;
17345;SDS011;8790;53.590;10.002;2023-02-02T02:27:36;11.53;;;2.47;;
17345;SDS011;8790;53.590;10.002;2023-02-02T02:33:38;11.03;;;2.37;;
17345;SDS011;8790;53.590;10.002;2023-02-02T02:36:18;14.30;;;2.30;;
17345;SDS011;8790;53.590;10.002;2023-02-02T02:39:03;12.73;;;2.60;;
17345;SDS011;8790;53.590;10.002;2023-02-02T02:41:43;18.17;;;2.63;;
17345;SDS011;8790;53.590;10.002;2023-02-02T02:44:20;16.97;;;2.63;;
17345;SDS011;8790;53.590;10.002;2023-02-02T02:46:52;19.67;;;3.00;;
17345;SDS011;8790;53.590;10.002;2023-02-02T02:49:26;22.73;;;3.07;;
17345;SDS011;8790;53.590;10.002;2023-02-02T02:51:59;13.13;;;2.50;;
17345;SDS011;8790;53.590;10.002;2023-02-02T02:54:39;15.27;;;2.83;;
17345;SDS011;8790;53.590;10.002;2023-02-02T02:57:19;15.07;;;2.67;;
17345;SDS011;8790;53.590;10.002;2023-02-02T03:00:05;15.53;;;3.00;;
17345;SDS011;8790;53.590;10.002;2023-02-02T03:02:48;10.83;;;2.30;;
17345;SDS011;8790;53.590;10.002;2023-02-02T03:05:30;12.63;;;3.10;;
17345;SDS011;8790;53.590;10.002;2023-02-02T03:08:09;17.53;;;3.10;;
17345;SDS011;8790;53.590;10.002;2023-02-02T03:10:48;16.93;;;3.03;;
17345;SDS011;8790;53.590;10.002;2023-02-02T03:13:21;13.83;;;2.60;;
17345;SDS011;8790;53.590;10.002;2023-02-02T03:15:54;12.33;;;2.93;;
17345;SDS011;8790;53.590;10.002;2023-02-02T03:18:26;15.77;;;2.70;;
17345;SDS011;8790;53.590;10.002;2023-02-02T03:21:01;13.57;;;2.37;;
17345;SDS011;8790;53.590;10.002;2023-02-02T03:23:33;10.60;;;2.10;;
17345;SDS011;8790;53.590;10.002;2023-02-02T03:26:05;9.57;;;1.73;;
17345;SDS011;8790;53.590;10.002;2023-02-02T03:28:37;16.03;;;2.77;;
17345;SDS011;8790;53.590;10.002;2023-02-02T03:31:09;13.00;;;2.20;;
17345;SDS011;8790;53.590;10.002;2023-02-02T03:33:41;14.70;;;2.87;;
17345;SDS011;8790;53.590;10.002;2023-02-02T03:36:14;12.87;;;2.00;;
17345;SDS011;8790;53.590;10.002;2023-02-02T03:38:45;12.03;;;2.00;;
17345;SDS011;8790;53.590;10.002;2023-02-02T03:41:17;12.57;;;1.90;;
17345;SDS011;8790;53.590;10.002;2023-02-02T03:43:49;10.77;;;2.30;;
17345;SDS011;8790;53.590;10.002;2023-02-02T03:46:20;12.43;;;2.03;;
17345;SDS011;8790;53.590;10.002;2023-02-02T03:48:52;12.00;;;2.27;;
17345;SDS011;8790;53.590;10.002;2023-02-02T03:51:25;11.10;;;2.20;;
17345;SDS011;8790;53.590;10.002;2023-02-02T03:53:57;14.67;;;2.80;;
17345;SDS011;8790;53.590;10.002;2023-02-02T03:56:28;12.67;;;2.23;;
17345;SDS011;8790;53.590;10.002;2023-02-02T03:59:00;11.93;;;2.50;;
17345;SDS011;8790;53.590;10.002;2023-02-02T04:01:32;7.93;;;1.83;;
17345;SDS011;8790;53.590;10.002;2023-02-02T04:04:04;8.40;;;2.00;;
17345;SDS011;8790;53.590;10.002;2023-02-02T04:06:37;10.77;;;2.17;;
17345;SDS011;8790;53.590;10.002;2023-02-02T04:09:08;9.53;;;1.90;;
17345;SDS011;8790;53.590;10.002;2023-02-02T04:11:40;7.37;;;1.73;;
17345;SDS011;8790;53.590;10.002;2023-02-02T04:14:12;8.27;;;1.60;;
17345;SDS011;8790;53.590;10.002;2023-02-02T04:16:44;12.43;;;2.00;;
17345;SDS011;8790;53.590;10.002;2023-02-02T04:19:15;8.57;;;1.80;;
17345;SDS011;8790;53.590;10.002;2023-02-02T04:21:48;7.60;;;1.60;;
17345;SDS011;8790;53.590;10.002;2023-02-02T04:24:20;15.47;;;2.33;;
17345;SDS011;8790;53.590;10.002;2023-02-02T04:26:52;11.67;;;1.93;;
17345;SDS011;8790;53.590;10.002;2023-02-02T04:29:24;13.47;;;2.53;;
17345;SDS011;8790;53.590;10.002;2023-02-02T04:31:55;10.90;;;2.50;;
17345;SDS011;8790;53.590;10.002;2023-02-02T04:34:27;10.40;;;1.87;;
17345;SDS011;8790;53.590;10.002;2023-02-02T04:37:00;9.23;;;1.73;;
17345;SDS011;8790;53.590;10.002;2023-02-02T04:39:32;9.03;;;2.10;;
17345;SDS011;8790;53.590;10.002;2023-02-02T04:42:03;12.70;;;2.33;;
17345;SDS011;8790;53.590;10.002;2023-02-02T04:44:35;10.63;;;2.50;;
17345;SDS011;8790;53.590;10.002;2023-02-02T04:47:07;16.27;;;2.43;;
17345;SDS011;8790;53.590;10.002;2023-02-02T04:49:39;14.33;;;2.57;;
17345;SDS011;8790;53.590;10.002;2023-02-02T04:52:12;13.23;;;2.40;;
17345;SDS011;8790;53.590;10.002;2023-02-02T04:54:43;12.53;;;2.20;;
17345;SDS011;8790;53.590;10.002;2023-02-02T04:57:15;13.43;;;2.63;;
17345;SDS011;8790;53.590;10.002;2023-02-02T04:59:46;13.73;;;2.33;;
17345;SDS011;8790;53.590;10.002;2023-02-02T05:02:18;15.47;;;2.60;;
17345;SDS011;8790;53.590;10.002;2023-02-02T05:04:50;12.83;;;2.27;;
17345;SDS011;8790;53.590;10.002;2023-02-02T05:07:23;13.33;;;2.40;;
17345;SDS011;8790;53.590;10.002;2023-02-02T05:09:59;9.63;;;2.13;;
17345;SDS011;8790;53.590;10.002;2023-02-02T05:12:31;8.57;;;2.80;;
17345;SDS011;8790;53.590;10.002;2023-02-02T05:15:03;12.33;;;2.63;;
17345;SDS011;8790;53.590;10.002;2023-02-02T05:17:35;12.60;;;2.10;;
17345;SDS011;8790;53.590;10.002;2023-02-02T05:20:07;17.30;;;2.87;;
17345;SDS011;8790;53.590;10.002;2023-02-02T05:22:41;13.20;;;2.30;;
17345;SDS011;8790;53.590;10.002;2023-02-02T05:25:19;10.87;;;2.40;;
17345;SDS011;8790;53.590;10.002;2023-02-02T05:27:51;8.30;;;1.60;;
17345;SDS011;8790;53.590;10.002;2023-02-02T05:30:23;9.53;;;1.93;;
17345;SDS011;8790;53.590;10.002;2023-02-02T05:32:54;11.83;;;2.20;;
17345;SDS011;8790;53.590;10.002;2023-02-02T05:35:26;8.60;;;1.50;;
17345;SDS011;8790;53.590;10.002;2023-02-02T05:37:59;6.73;;;1.60;;
17345;SDS011;8790;53.590;10.002;2023-02-02T05:40:31;12.63;;;2.30;;
17345;SDS011;8790;53.590;10.002;2023-02-02T05:43:03;13.37;;;2.20;;
17345;SDS011;8790;53.590;10.002;2023-02-02T05:45:35;14.90;;;2.67;;
17345;SDS011;8790;53.590;10.002;2023-02-02T05:48:07;14.23;;;2.40;;
17345;SDS011;8790;53.590;10.002;2023-02-02T05:50:40;11.93;;;2.73;;
17345;SDS011;8790;53.590;10.002;2023-02-02T05:53:14;14.90;;;2.37;;
17345;SDS011;8790;53.590;10.002;2023-02-02T05:55:46;11.30;;;2.70;;
17345;SDS011;8790;53.590;10.002;2023-02-02T05:58:18;15.43;;;2.93;;
17345;SDS011;8790;53.590;10.002;2023-02-02T06:00:50;19.97;;;2.90;;
17345;SDS011;8790;53.590;10.002;2023-02-02T06:03:22;13.33;;;2.43;;
17345;SDS011;8790;53.590;10.002;2023-02-02T06:05:54;13.80;;;2.63;;
17345;SDS011;8790;53.590;10.002;2023-02-02T06:08:27;14.47;;;2.53;;
17345;SDS011;8790;53.590;10.002;2023-02-02T06:10:58;17.97;;;3.03;;
17345;SDS011;8790;53.590;10.002;2023-02-02T06:13:30;12.07;;;2.80;;
17345;SDS011;8790;53.590;10.002;2023-02-02T06:16:02;13.63;;;2.60;;
17345;SDS011;8790;53.590;10.002;2023-02-02T06:18:34;16.93;;;2.70;;
17345;SDS011;8790;53.590;10.002;2023-02-02T06:21:07;13.57;;;3.13;;
17345;SDS011;8790;53.590;10.002;2023-02-02T06:23:40;15.47;;;2.60;;
17345;SDS011;8790;53.590;10.002;2023-02-02T06:26:15;15.10;;;2.80;;
17345;SDS011;8790;53.590;10.002;2023-02-02T06:28:48;17.97;;;3.57;;
17345;SDS011;8790;53.590;10.002;2023-02-02T06:31:20;16.80;;;3.20;;
17345;SDS011;8790;53.590;10.002;2023-02-02T06:33:53;17.57;;;3.60;;
17345;SDS011;8790;53.590;10.002;2023-02-02T06:36:26;17.97;;;3.70;;
17345;SDS011;8790;53.590;10.002;2023-02-02T06:39:00;14.90;;;2.83;;
17345;SDS011;8790;53.590;10.002;2023-02-02T06:41:35;12.50;;;2.77;;
17345;SDS011;8790;53.590;10.002;2023-02-02T06:44:06;15.23;;;3.20;;
17345;SDS011;8790;53.590;10.002;2023-02-02T06:46:38;16.30;;;3.17;;
17345;SDS011;8790;53.590;10.002;2023-02-02T06:49:10;17.90;;;3.37;;
17345;SDS011;8790;53.590;10.002;2023-02-02T06:51:42;19.97;;;3.27;;
17345;SDS011;8790;53.590;10.002;2023-02-02T06:54:15;13.53;;;2.90;;
17345;SDS011;8790;53.590;10.002;2023-02-02T06:56:46;15.17;;;2.70;;
17345;SDS011;8790;53.590;10.002;2023-02-02T06:59:18;17.67;;;3.03;;
17345;SDS011;8790;53.590;10.002;2023-02-02T07:01:50;17.27;;;3.40;;
17345;SDS011;8790;53.590;10.002;2023-02-02T07:04:22;17.47;;;3.27;;
17345;SDS011;8790;53.590;10.002;2023-02-02T07:06:54;12.97;;;2.53;;
17345;SDS011;8790;53.590;10.002;2023-02-02T07:09:27;15.83;;;2.20;;
17345;SDS011;8790;53.590;10.002;2023-02-02T07:11:59;12.47;;;2.13;;
17345;SDS011;8790;53.590;10.002;2023-02-02T07:14:30;13.17;;;2.37;;
17345;SDS011;8790;53.590;10.002;2023-02-02T07:17:02;11.80;;;2.10;;
17345;SDS011;8790;53.590;10.002;2023-02-02T07:19:34;10.80;;;1.60;;
17345;SDS011;8790;53.590;10.002;2023-02-02T07:22:05;9.03;;;1.73;;
17345;SDS011;8790;53.590;10.002;2023-02-02T07:24:38;12.87;;;2.30;;
17345;SDS011;8790;53.590;10.002;2023-02-02T07:27:13;10.17;;;2.27;;
17345;SDS011;8790;53.590;10.002;2023-02-02T07:29:44;13.67;;;2.23;;
17345;SDS011;8790;53.590;10.002;2023-02-02T07:32:16;12.37;;;2.47;;
17345;SDS011;8790;53.590;10.002;2023-02-02T07:34:48;13.17;;;3.30;;
17345;SDS011;8790;53.590;10.002;2023-02-02T07:37:19;15.33;;;2.83;;
17345;SDS011;8790;53.590;10.002;2023-02-02T07:39:52;16.70;;;2.80;;
17345;SDS011;8790;53.590;10.002;2023-02-02T07:42:24;14.93;;;3.17;;
17345;SDS011;8790;53.590;10.002;2023-02-02T07:44:55;14.00;;;2.80;;
17345;SDS011;8790;53.590;10.002;2023-02-02T07:47:28;13.73;;;3.00;;
17345;SDS011;8790;53.590;10.002;2023-02-02T07:50:00;19.60;;;2.93;;
17345;SDS011;8790;53.590;10.002;2023-02-02T07:52:31;14.03;;;3.00;;
17345;SDS011;8790;53.590;10.002;2023-02-02T07:55:05;14.70;;;2.70;;
17345;SDS011;8790;53.590;10.002;2023-02-02T07:57:38;13.47;;;2.90;;
17345;SDS011;8790;53.590;10.002;2023-02-02T08:00:10;13.60;;;2.67;;
17345;SDS011;8790;53.590;10.002;2023-02-02T08:02:42;21.07;;;3.40;;
17345;SDS011;8790;53.590;10.002;2023-02-02T08:05:14;14.70;;;3.40;;
17345;SDS011;8790;53.590;10.002;2023-02-02T08:07:46;15.73;;;3.40;;
17345;SDS011;8790;53.590;10.002;2023-02-02T08:10:19;20.40;;;3.17;;
17345;SDS011;8790;53.590;10.002;2023-02-02T08:12:50;18.10;;;3.20;;
17345;SDS011;8790;53.590;10.002;2023-02-02T08:15:22;17.43;;;3.30;;
17345;SDS011;8790;53.590;10.002;2023-02-02T08:17:54;14.00;;;3.10;;
17345;SDS011;8790;53.590;10.002;2023-02-02T08:20:26;19.00;;;2.97;;
17345;SDS011;8790;53.590;10.002;2023-02-02T08:22:57;13.50;;;2.60;;
17345;SDS011;8790;53.590;10.002;2023-02-02T08:25:31;16.87;;;2.70;;
17345;SDS011;8790;53.590;10.002;2023-02-02T08:28:02;13.03;;;2.87;;
17345;SDS011;8790;53.590;10.002;2023-02-02T08:30:35;12.53;;;2.47;;
17345;SDS011;8790;53.590;10.002;2023-02-02T08:33:07;13.33;;;2.60;;
17345;SDS011;8790;53.590;10.002;2023-02-02T08:35:39;14.43;;;2.63;;
17345;SDS011;8790;53.590;10.002;2023-02-02T08:38:11;16.83;;;2.67;;
17345;SDS011;8790;53.590;10.002;2023-02-02T08:40:44;15.20;;;2.77;;
17345;SDS011;8790;53.590;10.002;2023-02-02T08:43:16;17.93;;;2.60;;
17345;SDS011;8790;53.590;10.002;2023-02-02T08:45:49;14.70;;;2.70;;
17345;SDS011;8790;53.590;10.002;2023-02-02T08:48:21;12.17;;;2.47;;
17345;SDS011;8790;53.590;10.002;2023-02-02T08:50:53;12.27;;;2.33;;
17345;SDS011;8790;53.590;10.002;2023-02-02T08:53:25;14.47;;;2.80;;
17345;SDS011;8790;53.590;10.002;2023-02-02T08:56:00;12.37;;;2.60;;
17345;SDS011;8790;53.590;10.002;2023-02-02T08:58:33;10.47;;;2.27;;
17345;SDS011;8790;53.590;10.002;2023-02-02T09:01:06;9.67;;;2.20;;
17345;SDS011;8790;53.590;10.002;2023-02-02T09:03:41;14.90;;;2.77;;
17345;SDS011;8790;53.590;10.002;2023-02-02T09:06:13;16.40;;;3.13;;
17345;SDS011;8790;53.590;10.002;2023-02-02T09:08:47;16.17;;;3.00;;
17345;SDS011;8790;53.590;10.002;2023-02-02T09:11:20;9.47;;;2.00;;
17345;SDS011;8790;53.590;10.002;2023-02-02T09:13:52;10.60;;;2.43;;
17345;SDS011;8790;53.590;10.002;2023-02-02T09:16:25;10.27;;;2.27;;
17345;SDS011;8790;53.590;10.002;2023-02-02T09:18:57;15.53;;;2.17;;
17345;SDS011;8790;53.590;10.002;2023-02-02T09:21:29;9.27;;;2.20;;
17345;SDS011;8790;53.590;10.002;2023-02-02T09:24:07;9.63;;;1.73;;
17345;SDS011;8790;53.590;10.002;2023-02-02T09:26:41;10.10;;;1.70;;
17345;SDS011;8790;53.590;10.002;2023-02-02T09:29:14;10.23;;;1.87;;
17345;SDS011;8790;53.590;10.002;2023-02-02T09:31:47;11.30;;;1.93;;
17345;SDS011;8790;53.590;10.002;2023-02-02T09:34:19;11.53;;;2.00;;
17345;SDS011;8790;53.590;10.002;2023-02-02T09:36:51;8.67;;;2.07;;
17345;SDS011;8790;53.590;10.002;2023-02-02T09:39:23;13.43;;;2.57;;
17345;SDS011;8790;53.590;10.002;2023-02-02T09:42:09;12.17;;;2.00;;
17345;SDS011;8790;53.590;10.002;2023-02-02T09:44:55;10.07;;;1.87;;
17345;SDS011;8790;53.590;10.002;2023-02-02T09:47:44;10.67;;;2.07;;
17345;SDS011;8790;53.590;10.002;2023-02-02T09:50:29;9.00;;;2.10;;
17345;SDS011;8790;53.590;10.002;2023-02-02T09:53:12;13.93;;;2.40;;
17345;SDS011;8790;53.590;10.002;2023-02-02T09:55:49;12.53;;;2.20;;
17345;SDS011;8790;53.590;10.002;2023-02-02T09:58:25;9.33;;;2.13;;
17345;SDS011;8790;53.590;10.002;2023-02-02T10:01:00;9.60;;;2.47;;
17345;SDS011;8790;53.590;10.002;2023-02-02T10:03:36;11.57;;;2.10;;
17345;SDS011;8790;53.590;10.002;2023-02-02T10:06:15;7.30;;;2.03;;
17345;SDS011;8790;53.590;10.002;2023-02-02T10:08:56;9.03;;;1.80;;
17345;SDS011;8790;53.590;10.002;2023-02-02T10:11:33;8.07;;;1.60;;
17345;SDS011;8790;53.590;10.002;2023-02-02T10:14:14;12.77;;;1.77;;
17345;SDS011;8790;53.590;10.002;2023-02-02T10:16:52;12.07;;;2.10;;
17345;SDS011;8790;53.590;10.002;2023-02-02T10:19:25;12.67;;;2.10;;
17345;SDS011;8790;53.590;10.002;2023-02-02T10:22:01;11.07;;;2.20;;
17345;SDS011;8790;53.590;10.002;2023-02-02T10:24:35;6.67;;;1.90;;
17345;SDS011;8790;53.590;10.002;2023-02-02T10:27:08;10.40;;;1.87;;
17345;SDS011;8790;53.590;10.002;2023-02-02T10:29:46;9.73;;;1.70;;
17345;SDS011;8790;53.590;10.002;2023-02-02T10:32:25;11.03;;;1.60;;
17345;SDS011;8790;53.590;10.002;2023-02-02T10:35:07;7.13;;;1.73;;
17345;SDS011;8790;53.590;10.002;2023-02-02T10:37:52;10.33;;;2.00;;
17345;SDS011;8790;53.590;10.002;2023-02-02T10:40:36;6.87;;;1.53;;
17345;SDS011;8790;53.590;10.002;2023-02-02T10:43:20;10.53;;;1.70;;
17345;SDS011;8790;53.590;10.002;2023-02-02T10:46:26;9.63;;;1.67;;
17345;SDS011;8790;53.590;10.002;2023-02-02T10:49:10;5.67;;;1.40;;
17345;SDS011;8790;53.590;10.002;2023-02-02T10:51:48;9.43;;;1.40;;
17345;SDS011;8790;53.590;10.002;2023-02-02T10:54:33;5.03;;;1.80;;
17345;SDS011;8790;53.590;10.002;2023-02-02T10:57:13;7.37;;;1.50;;
17345;SDS011;8790;53.590;10.002;2023-02-02T10:59:51;8.77;;;2.40;;
17345;SDS011;8790;53.590;10.002;2023-02-02T11:02:34;10.37;;;1.97;;
17345;SDS011;8790;53.590;10.002;2023-02-02T11:05:09;8.10;;;2.23;;
17345;SDS011;8790;53.590;10.002;2023-02-02T11:08:08;7.23;;;1.53;;
17345;SDS011;8790;53.590;10.002;2023-02-02T11:10:43;6.23;;;1.73;;
17345;SDS011;8790;53.590;10.002;2023-02-02T11:13:22;7.40;;;1.80;;
17345;SDS011;8790;53.590;10.002;2023-02-02T11:18:59;8.33;;;1.87;;
17345;SDS011;8790;53.590;10.002;2023-02-02T11:21:32;7.17;;;1.77;;
17345;SDS011;8790;53.590;10.002;2023-02-02T11:24:05;9.37;;;2.07;;
17345;SDS011;8790;53.590;10.002;2023-02-02T11:26:49;8.80;;;1.87;;
17345;SDS011;8790;53.590;10.002;2023-02-02T11:29:25;9.60;;;2.00;;
17345;SDS011;8790;53.590;10.002;2023-02-02T11:37:51;13.53;;;2.47;;
17345;SDS011;8790;53.590;10.002;2023-02-02T11:40:29;8.50;;;2.23;;
17345;SDS011;8790;53.590;10.002;2023-02-02T11:43:12;8.17;;;2.00;;
17345;SDS011;8790;53.590;10.002;2023-02-02T11:45:52;7.67;;;2.10;;
17345;SDS011;8790;53.590;10.002;2023-02-02T11:48:27;7.83;;;2.10;;
17345;SDS011;8790;53.590;10.002;2023-02-02T11:51:02;9.17;;;2.23;;
17345;SDS011;8790;53.590;10.002;2023-02-02T11:53:37;9.00;;;2.27;;
17345;SDS011;8790;53.590;10.002;2023-02-02T11:56:16;9.17;;;1.70;;
17345;SDS011;8790;53.590;10.002;2023-02-02T11:58:51;7.97;;;1.70;;
17345;SDS011;8790;53.590;10.002;2023-02-02T12:01:25;6.93;;;1.53;;
17345;SDS011;8790;53.590;10.002;2023-02-02T12:03:58;5.27;;;1.33;;
17345;SDS011;8790;53.590;10.002;2023-02-02T12:06:34;5.43;;;1.50;;
17345;SDS011;8790;53.590;10.002;2023-02-02T12:09:09;5.13;;;1.20;;
17345;SDS011;8790;53.590;10.002;2023-02-02T12:11:46;6.30;;;1.53;;
17345;SDS011;8790;53.590;10.002;2023-02-02T12:14:27;5.90;;;1.40;;
17345;SDS011;8790;53.590;10.002;2023-02-02T12:17:14;5.83;;;1.63;;
17345;SDS011;8790;53.590;10.002;2023-02-02T12:19:56;7.07;;;1.60;;
17345;SDS011;8790;53.590;10.002;2023-02-02T12:22:55;9.57;;;1.40;;
17345;SDS011;8790;53.590;10.002;2023-02-02T12:25:42;9.43;;;1.60;;
17345;SDS011;8790;53.590;10.002;2023-02-02T12:28:32;6.73;;;1.10;;
17345;SDS011;8790;53.590;10.002;2023-02-02T12:31:17;8.33;;;1.43;;
17345;SDS011;8790;53.590;10.002;2023-02-02T12:33:58;6.20;;;1.20;;
17345;SDS011;8790;53.590;10.002;2023-02-02T12:36:39;4.27;;;1.17;;
17345;SDS011;8790;53.590;10.002;2023-02-02T12:39:22;5.77;;;1.33;;
17345;SDS011;8790;53.590;10.002;2023-02-02T12:42:09;5.73;;;1.40;;
17345;SDS011;8790;53.590;10.002;2023-02-02T12:48:09;5.33;;;1.30;;
17345;SDS011;8790;53.590;10.002;2023-02-02T12:50:53;8.67;;;1.40;;
17345;SDS011;8790;53.590;10.002;2023-02-02T12:53:39;7.00;;;1.73;;
17345;SDS011;8790;53.590;10.002;2023-02-02T12:56:24;5.33;;;1.30;;
17345;SDS011;8790;53.590;10.002;2023-02-02T12:59:04;5.03;;;1.40;;
17345;SDS011;8790;53.590;10.002;2023-02-02T13:01:49;7.37;;;1.70;;
17345;SDS011;8790;53.590;10.002;2023-02-02T13:04:31;6.20;;;1.47;;
17345;SDS011;8790;53.590;10.002;2023-02-02T13:07:24;4.30;;;1.27;;
17345;SDS011;8790;53.590;10.002;2023-02-02T13:10:14;8.03;;;1.77;;
17345;SDS011;8790;53.590;10.002;2023-02-02T13:12:52;7.53;;;2.23;;
17345;SDS011;8790;53.590;10.002;2023-02-02T13:15:28;6.97;;;1.80;;
17345;SDS011;8790;53.590;10.002;2023-02-02T13:18:05;8.03;;;1.47;;
17345;SDS011;8790;53.590;10.002;2023-02-02T13:20:48;6.60;;;1.50;;
17345;SDS011;8790;53.590;10.002;2023-02-02T13:23:26;6.00;;;1.57;;
17345;SDS011;8790;53.590;10.002;2023-02-02T13:26:03;6.67;;;2.10;;
17345;SDS011;8790;53.590;10.002;2023-02-02T13:28:40;6.17;;;2.13;;
17345;SDS011;8790;53.590;10.002;2023-02-02T13:31:17;4.83;;;1.70;;
17345;SDS011;8790;53.590;10.002;2023-02-02T13:33:53;7.00;;;1.80;;
17345;SDS011;8790;53.590;10.002;2023-02-02T13:36:31;6.07;;;1.80;;
17345;SDS011;8790;53.590;10.002;2023-02-02T13:39:10;5.00;;;1.67;;
17345;SDS011;8790;53.590;10.002;2023-02-02T13:41:47;7.83;;;2.27;;
17345;SDS011;8790;53.590;10.002;2023-02-02T13:44:22;5.43;;;1.90;;
17345;SDS011;8790;53.590;10.002;2023-02-02T13:47:01;5.33;;;2.07;;
17345;SDS011;8790;53.590;10.002;2023-02-02T13:49:37;6.60;;;2.07;;
17345;SDS011;8790;53.590;10.002;2023-02-02T13:52:17;3.87;;;1.60;;
17345;SDS011;8790;53.590;10.002;2023-02-02T13:55:03;7.40;;;1.73;;
17345;SDS011;8790;53.590;10.002;2023-02-02T13:57:53;6.23;;;1.63;;
17345;SDS011;8790;53.590;10.002;2023-02-02T14:00:38;6.83;;;1.83;;
17345;SDS011;8790;53.590;10.002;2023-02-02T14:03:21;7.50;;;2.00;;
17345;SDS011;8790;53.590;10.002;2023-02-02T14:06:01;5.43;;;1.57;;
17345;SDS011;8790;53.590;10.002;2023-02-02T14:08:43;3.63;;;1.10;;
17345;SDS011;8790;53.590;10.002;2023-02-02T14:11:20;8.43;;;1.30;;
17345;SDS011;8790;53.590;10.002;2023-02-02T14:13:56;3.03;;;0.80;;
17345;SDS011;8790;53.590;10.002;2023-02-02T14:16:49;4.27;;;1.00;;
17345;SDS011;8790;53.590;10.002;2023-02-02T14:28:39;5.30;;;0.97;;
17345;SDS011;8790;53.590;10.002;2023-02-02T14:34:26;4.53;;;1.07;;
17345;SDS011;8790;53.590;10.002;2023-02-02T14:37:08;4.77;;;0.80;;
17345;SDS011;8790;53.590;10.002;2023-02-02T14:40:02;8.30;;;2.20;;
17345;SDS011;8790;53.590;10.002;2023-02-02T14:43:05;13.47;;;5.17;;
17345;SDS011;8790;53.590;10.002;2023-02-02T14:46:21;5.47;;;1.10;;
17345;SDS011;8790;53.590;10.002;2023-02-02T14:49:05;6.53;;;1.30;;
17345;SDS011;8790;53.590;10.002;2023-02-02T14:51:46;6.57;;;1.50;;
17345;SDS011;8790;53.590;10.002;2023-02-02T14:54:31;5.93;;;1.30;;
17345;SDS011;8790;53.590;10.002;2023-02-02T14:57:18;4.97;;;1.20;;
17345;SDS011;8790;53.590;10.002;2023-02-02T14:59:54;6.03;;;1.33;;
17345;SDS011;8790;53.590;10.002;2023-02-02T15:02:29;6.00;;;1.30;;
17345;SDS011;8790;53.590;10.002;2023-02-02T15:05:33;4.93;;;1.10;;
17345;SDS011;8790;53.590;10.002;2023-02-02T15:08:18;4.90;;;0.97;;
17345;SDS011;8790;53.590;10.002;2023-02-02T15:11:03;4.93;;;1.00;;
17345;SDS011;8790;53.590;10.002;2023-02-02T15:14:05;4.33;;;1.27;;
17345;SDS011;8790;53.590;10.002;2023-02-02T15:16:43;6.93;;;1.30;;
17345;SDS011;8790;53.590;10.002;2023-02-02T15:19:19;5.07;;;1.40;;
17345;SDS011;8790;53.590;10.002;2023-02-02T15:21:58;4.80;;;1.33;;
17345;SDS011;8790;53.590;10.002;2023-02-02T15:24:38;5.10;;;1.30;;
17345;SDS011;8790;53.590;10.002;2023-02-02T15:27:12;7.77;;;1.30;;
17345;SDS011;8790;53.590;10.002;2023-02-02T15:29:47;6.30;;;1.23;;
17345;SDS011;8790;53.590;10.002;2023-02-02T15:32:23;7.50;;;1.53;;
17345;SDS011;8790;53.590;10.002;2023-02-02T15:34:57;6.30;;;1.40;;
17345;SDS011;8790;53.590;10.002;2023-02-02T15:37:33;11.63;;;1.93;;
17345;SDS011;8790;53.590;10.002;2023-02-02T15:40:13;5.67;;;1.20;;
17345;SDS011;8790;53.590;10.002;2023-02-02T15:42:51;5.93;;;1.40;;
17345;SDS011;8790;53.590;10.002;2023-02-02T15:45:43;10.90;;;4.37;;
17345;SDS011;8790;53.590;10.002;2023-02-02T15:48:21;7.63;;;1.67;;
17345;SDS011;8790;53.590;10.002;2023-02-02T15:50:56;6.87;;;1.50;;
17345;SDS011;8790;53.590;10.002;2023-02-02T15:53:31;5.00;;;1.23;;
17345;SDS011;8790;53.590;10.002;2023-02-02T15:56:25;4.77;;;1.30;;
17345;SDS011;8790;53.590;10.002;2023-02-02T15:58:59;9.90;;;1.17;;
17345;SDS011;8790;53.590;10.002;2023-02-02T16:01:31;4.47;;;1.30;;
17345;SDS011;8790;53.590;10.002;2023-02-02T16:04:15;9.53;;;1.70;;
17345;SDS011;8790;53.590;10.002;2023-02-02T16:06:50;4.37;;;1.40;;
17345;SDS011;8790;53.590;10.002;2023-02-02T16:09:24;5.00;;;1.23;;